createdAt,value
2023-01-03T00:01:00.427Z,8.24
2023-01-03T00:03:28.126Z,8.12
2023-01-03T00:05:55.770Z,8.50
2023-01-03T00:08:23.399Z,8.56
2023-01-03T00:10:51.053Z,8.42
2023-01-03T00:13:19.119Z,8.30
2023-01-03T00:15:49.050Z,8.15
2023-01-03T00:18:16.712Z,8.33
2023-01-03T00:20:44.332Z,8.56
2023-01-03T00:23:12.045Z,8.30
2023-01-03T00:25:40.100Z,8.49
2023-01-03T00:28:08.072Z,8.31
2023-01-03T00:30:37.944Z,8.23
2023-01-03T00:33:05.571Z,8.46
2023-01-03T00:35:33.490Z,8.23
2023-01-03T00:38:01.175Z,8.11
2023-01-03T00:40:28.979Z,8.25
2023-01-03T00:43:14.190Z,7.87
2023-01-03T00:45:43.278Z,8.25
2023-01-03T00:48:10.946Z,8.08
2023-01-03T00:50:38.979Z,8.14
2023-01-03T00:53:06.631Z,8.07
2023-01-03T00:55:35.826Z,7.81
2023-01-03T00:58:03.506Z,8.13
2023-01-03T01:00:31.246Z,8.19
2023-01-03T01:03:00.522Z,8.06
2023-01-03T01:05:30.118Z,8.07
2023-01-03T01:07:58.056Z,7.90
2023-01-03T01:10:26.190Z,7.75
2023-01-03T01:12:56.887Z,7.48
2023-01-03T01:15:24.758Z,7.09
2023-01-03T01:17:52.455Z,7.34
2023-01-03T01:20:21.885Z,7.12
2023-01-03T01:22:49.541Z,7.42
2023-01-03T01:25:17.385Z,6.90
2023-01-03T01:27:45.064Z,7.11
2023-01-03T01:30:13.635Z,7.29
2023-01-03T01:32:41.410Z,7.06
2023-01-03T01:35:09.945Z,7.36
2023-01-03T01:37:39.074Z,7.10
2023-01-03T01:40:08.790Z,6.88
2023-01-03T01:42:53.898Z,6.57
2023-01-03T01:45:21.616Z,6.82
2023-01-03T01:47:54.313Z,7.14
2023-01-03T01:50:26.691Z,7.07
2023-01-03T01:53:00.282Z,6.98
2023-01-03T01:55:36.481Z,7.16
2023-01-03T01:58:04.499Z,7.07
2023-01-03T02:00:32.164Z,7.14
2023-01-03T02:03:00.348Z,7.17
2023-01-03T02:05:29.078Z,7.10
2023-01-03T02:07:59.275Z,6.93
2023-01-03T02:10:41.108Z,7.10
2023-01-03T02:13:15.192Z,6.58
2023-01-03T02:16:12.018Z,6.95
2023-01-03T02:18:47.738Z,6.60
2023-01-03T02:21:53.783Z,6.93
2023-01-03T02:25:04.991Z,6.91
2023-01-03T02:28:05.722Z,6.84
2023-01-03T02:30:41.855Z,6.80
2023-01-03T02:33:21.805Z,6.80
2023-01-03T02:36:00.430Z,6.80
2023-01-03T02:38:41.376Z,6.56
2023-01-03T02:41:19.133Z,5.78
2023-01-03T02:43:54.875Z,6.08
2023-01-03T02:46:28.155Z,6.56
2023-01-03T02:49:00.296Z,6.70
2023-01-03T02:51:33.554Z,6.11
2023-01-03T02:54:03.740Z,6.37
2023-01-03T02:56:36.853Z,6.51
2023-01-03T02:59:09.685Z,6.36
2023-01-03T03:01:44.785Z,6.19
2023-01-03T03:04:13.655Z,6.53
2023-01-03T03:06:46.951Z,5.63
2023-01-03T03:09:14.682Z,6.52
2023-01-03T03:12:02.081Z,6.45
2023-01-03T03:14:35.657Z,6.43
2023-01-03T03:17:09.977Z,6.40
2023-01-03T03:19:57.347Z,6.18
2023-01-03T03:22:50.103Z,6.33
2023-01-03T03:25:21.713Z,6.34
2023-01-03T03:28:45.169Z,6.35
2023-01-03T03:31:17.036Z,6.15
2023-01-03T03:33:50.163Z,5.93
2023-01-03T03:36:24.898Z,6.37
2023-01-03T03:38:52.729Z,6.28
2023-01-03T03:41:46.055Z,5.83
2023-01-03T03:44:38.215Z,5.66
2023-01-03T03:47:14.700Z,6.18
2023-01-03T03:49:47.178Z,6.22
2023-01-03T03:52:18.037Z,6.03
2023-01-03T03:54:52.730Z,5.69
2023-01-03T03:57:26.988Z,5.59
2023-01-03T03:59:57.735Z,5.37
2023-01-03T04:02:29.073Z,6.14
2023-01-03T04:05:01.980Z,5.47
2023-01-03T04:07:29.844Z,6.10
2023-01-03T04:09:57.514Z,6.17
2023-01-03T04:12:25.595Z,6.04
2023-01-03T04:14:53.353Z,5.80
2023-01-03T04:17:21.063Z,5.61
2023-01-03T04:19:48.796Z,5.89
2023-01-03T04:22:17.855Z,5.30
2023-01-03T04:24:45.904Z,5.47
2023-01-03T04:27:18.394Z,6.06
2023-01-03T04:29:46.069Z,6.02
2023-01-03T04:32:13.806Z,5.61
2023-01-03T04:34:41.515Z,5.90
2023-01-03T04:37:09.221Z,5.71
2023-01-03T04:39:38.322Z,5.43
2023-01-03T04:42:26.666Z,5.46
2023-01-03T04:44:53.894Z,6.07
2023-01-03T04:47:21.720Z,5.76
2023-01-03T04:49:49.808Z,6.06
2023-01-03T04:52:17.631Z,5.97
2023-01-03T04:54:46.644Z,5.88
2023-01-03T04:57:14.341Z,5.57
2023-01-03T04:59:42.137Z,6.01
2023-01-03T05:02:10.037Z,5.60
2023-01-03T05:04:37.958Z,5.48
2023-01-03T05:07:05.663Z,6.04
2023-01-03T05:09:33.361Z,6.21
2023-01-03T05:12:02.535Z,6.19
2023-01-03T05:14:30.202Z,6.15
2023-01-03T05:16:57.933Z,5.83
2023-01-03T05:19:25.674Z,5.99
2023-01-03T05:22:10.732Z,5.54
2023-01-03T05:24:55.761Z,5.91
2023-01-03T05:27:25.030Z,6.10
2023-01-03T05:29:53.905Z,6.09
2023-01-03T05:32:22.934Z,5.11
2023-01-03T05:34:50.723Z,5.80
2023-01-03T05:37:18.407Z,6.18
2023-01-03T05:39:46.101Z,6.03
2023-01-03T05:42:13.809Z,5.90
2023-01-03T05:44:42.871Z,5.98
2023-01-03T05:47:10.651Z,5.28
2023-01-03T05:49:38.417Z,5.68
2023-01-03T05:52:06.403Z,6.03
2023-01-03T05:54:34.081Z,5.06
2023-01-03T05:57:01.840Z,5.54
2023-01-03T05:59:29.553Z,5.64
2023-01-03T06:01:58.721Z,5.22
2023-01-03T06:04:26.748Z,6.07
2023-01-03T06:06:54.481Z,5.69
2023-01-03T06:09:24.006Z,5.94
2023-01-03T06:11:51.726Z,5.61
2023-01-03T06:14:20.325Z,5.70
2023-01-03T06:17:05.683Z,5.83
2023-01-03T06:19:34.855Z,5.78
2023-01-03T06:22:08.647Z,5.76
2023-01-03T06:24:41.022Z,5.78
2023-01-03T06:27:08.783Z,5.49
2023-01-03T06:29:36.519Z,5.27
2023-01-03T06:32:09.097Z,5.77
2023-01-03T06:34:38.761Z,6.02
2023-01-03T06:37:06.532Z,5.50
2023-01-03T06:39:34.454Z,5.61
2023-01-03T06:42:22.225Z,5.60
2023-01-03T06:45:10.392Z,5.72
2023-01-03T06:47:56.004Z,5.78
2023-01-03T06:50:42.886Z,5.19
2023-01-03T06:53:14.913Z,5.68
2023-01-03T06:55:44.342Z,5.13
2023-01-03T06:58:12.710Z,5.82
2023-01-03T07:00:44.357Z,5.87
2023-01-03T07:03:12.716Z,5.69
2023-01-03T07:05:41.952Z,5.69
2023-01-03T07:08:09.670Z,5.30
2023-01-03T07:10:37.418Z,5.62
2023-01-03T07:13:22.815Z,5.62
2023-01-03T07:15:50.844Z,5.99
2023-01-03T07:18:18.620Z,4.93
2023-01-03T07:20:47.729Z,4.92
2023-01-03T07:23:15.700Z,5.46
2023-01-03T07:25:43.583Z,5.58
2023-01-03T07:28:12.429Z,5.90
2023-01-03T07:30:41.823Z,5.59
2023-01-03T07:33:10.887Z,5.20
2023-01-03T07:35:39.071Z,5.20
2023-01-03T07:38:09.151Z,5.59
2023-01-03T07:40:36.903Z,5.19
2023-01-03T07:43:22.220Z,5.82
2023-01-03T07:45:49.912Z,5.01
2023-01-03T07:48:17.643Z,5.30
2023-01-03T07:50:45.349Z,5.18
2023-01-03T07:53:16.753Z,5.86
2023-01-03T07:55:46.097Z,5.79
2023-01-03T07:58:14.189Z,5.94
2023-01-03T08:00:42.357Z,5.92
2023-01-03T08:03:11.707Z,5.44
2023-01-03T08:05:39.924Z,5.55
2023-01-03T08:08:08.049Z,5.88
2023-01-03T08:10:54.596Z,5.46
2023-01-03T08:13:22.527Z,5.81
2023-01-03T08:15:51.946Z,5.12
2023-01-03T08:18:21.591Z,5.67
2023-01-03T08:20:49.468Z,5.74
2023-01-03T08:23:17.192Z,4.63
2023-01-03T08:25:46.297Z,5.16
2023-01-03T08:28:14.168Z,5.17
2023-01-03T08:30:45.373Z,5.52
2023-01-03T08:33:16.032Z,5.81
2023-01-03T08:35:47.688Z,5.92
2023-01-03T08:38:19.557Z,5.72
2023-01-03T08:40:49.077Z,5.53
2023-01-03T08:43:17.873Z,5.84
2023-01-03T08:45:45.738Z,5.42
2023-01-03T08:48:13.575Z,5.35
2023-01-03T08:50:42.705Z,5.13
2023-01-03T08:53:10.945Z,5.24
2023-01-03T08:55:38.673Z,5.20
2023-01-03T08:58:09.629Z,5.41
2023-01-03T09:00:37.646Z,5.05
2023-01-03T09:03:05.574Z,5.29
2023-01-03T09:05:33.855Z,5.40
2023-01-03T09:08:01.725Z,5.42
2023-01-03T09:10:29.389Z,5.88
2023-01-03T09:12:57.153Z,5.17
2023-01-03T09:15:26.375Z,4.56
2023-01-03T09:17:54.149Z,4.78
2023-01-03T09:20:22.185Z,4.92
2023-01-03T09:22:50.065Z,5.60
2023-01-03T09:25:17.919Z,5.83
2023-01-03T09:27:47.689Z,5.18
2023-01-03T09:30:17.415Z,5.87
2023-01-03T09:32:46.695Z,5.29
2023-01-03T09:35:14.432Z,5.83
2023-01-03T09:37:48.537Z,5.50
2023-01-03T09:40:17.100Z,5.66
2023-01-03T09:43:02.747Z,5.22
2023-01-03T09:45:33.825Z,5.16
2023-01-03T09:48:05.599Z,5.90
2023-01-03T09:50:57.259Z,5.56
2023-01-03T09:53:53.507Z,5.49
2023-01-03T09:56:38.870Z,5.40
2023-01-03T09:59:30.679Z,5.51
2023-01-03T10:02:33.578Z,6.00
2023-01-03T10:05:18.404Z,5.11
2023-01-03T10:08:02.213Z,5.27
2023-01-03T10:10:38.134Z,4.97
2023-01-03T10:13:20.196Z,6.01
2023-01-03T10:15:55.816Z,5.82
2023-01-03T10:18:45.338Z,5.42
2023-01-03T10:21:22.688Z,5.72
2023-01-03T10:23:51.519Z,5.65
2023-01-03T10:26:20.144Z,5.77
2023-01-03T10:28:49.136Z,5.49
2023-01-03T10:31:39.525Z,5.29
2023-01-03T10:34:08.249Z,5.97
2023-01-03T10:36:37.378Z,5.08
2023-01-03T10:39:07.137Z,5.34
2023-01-03T10:41:43.458Z,5.95
2023-01-03T10:44:25.286Z,5.75
2023-01-03T10:46:55.279Z,5.71
2023-01-03T10:49:28.307Z,5.94
2023-01-03T10:52:04.115Z,5.07
2023-01-03T10:54:47.383Z,5.85
2023-01-03T10:57:40.256Z,6.23
2023-01-03T11:00:24.143Z,5.57
2023-01-03T11:02:52.683Z,6.45
2023-01-03T11:05:22.772Z,5.88
2023-01-03T11:07:56.731Z,6.12
2023-01-03T11:10:27.214Z,6.35
2023-01-03T11:12:54.979Z,6.01
2023-01-03T11:15:38.730Z,6.12
2023-01-03T11:18:18.134Z,6.09
2023-01-03T11:20:50.736Z,5.92
2023-01-03T11:23:29.034Z,5.90
2023-01-03T11:26:10.984Z,5.49
2023-01-03T11:28:59.692Z,6.01
2023-01-03T11:31:39.008Z,6.28
2023-01-03T11:34:21.720Z,6.14
2023-01-03T11:36:53.061Z,6.32
2023-01-03T11:39:43.828Z,6.45
2023-01-03T11:42:26.329Z,6.09
2023-01-03T11:45:26.913Z,6.33
2023-01-03T11:48:05.975Z,6.38
2023-01-03T11:50:46.668Z,6.07
2023-01-03T11:53:24.556Z,6.50
2023-01-03T11:56:08.083Z,6.19
2023-01-03T11:58:58.356Z,6.39
2023-01-03T12:01:41.610Z,6.45
2023-01-03T12:04:26.679Z,6.41
2023-01-03T12:07:45.690Z,6.33
2023-01-03T12:10:02.968Z,6.26
2023-01-03T12:12:47.960Z,6.28
2023-01-03T12:15:22.169Z,6.29
2023-01-03T12:17:54.428Z,6.37
2023-01-03T12:20:26.287Z,6.37
2023-01-03T12:22:58.563Z,6.44
2023-01-03T12:25:31.738Z,6.48
2023-01-03T12:28:08.837Z,5.73
2023-01-03T12:30:43.117Z,6.40
2023-01-03T12:33:25.072Z,6.37
2023-01-03T12:35:58.271Z,6.50
2023-01-03T12:38:30.336Z,5.92
2023-01-03T12:41:02.373Z,6.20
2023-01-03T12:43:37.185Z,5.69
2023-01-03T12:46:13.269Z,6.16
2023-01-03T12:48:54.263Z,6.30
2023-01-03T12:51:24.588Z,6.28
2023-01-03T12:54:10.036Z,6.44
2023-01-03T12:56:59.039Z,6.54
2023-01-03T12:59:44.995Z,6.56
2023-01-03T13:02:23.235Z,6.48
2023-01-03T13:04:54.905Z,6.28
2023-01-03T13:07:25.796Z,6.49
2023-01-03T13:10:01.147Z,6.37
2023-01-03T13:12:31.966Z,6.49
2023-01-03T13:15:15.938Z,6.51
2023-01-03T13:17:45.769Z,6.55
2023-01-03T13:20:28.371Z,5.97
2023-01-03T13:22:56.956Z,6.34
2023-01-03T13:25:37.504Z,6.40
2023-01-03T13:28:09.176Z,5.73
2023-01-03T13:30:39.226Z,6.39
2023-01-03T13:33:17.563Z,5.92
2023-01-03T13:36:01.525Z,6.41
2023-01-03T13:38:31.726Z,6.34
2023-01-03T13:41:17.796Z,6.32
2023-01-03T13:43:49.681Z,5.63
2023-01-03T13:46:25.760Z,6.07
2023-01-03T13:48:57.385Z,6.32
2023-01-03T13:51:50.516Z,6.38
2023-01-03T13:54:35.937Z,6.38
2023-01-03T13:57:07.255Z,6.04
2023-01-03T13:59:42.592Z,6.41
2023-01-03T14:02:51.034Z,6.51
2023-01-03T14:05:54.497Z,6.53
2023-01-03T14:08:35.582Z,6.48
2023-01-03T14:11:27.987Z,6.44
2023-01-03T14:14:00.449Z,6.56
2023-01-03T14:16:31.782Z,6.48
2023-01-03T14:19:05.385Z,6.54
2023-01-03T14:21:44.324Z,6.51
2023-01-03T14:24:20.034Z,6.42
2023-01-03T14:26:47.770Z,6.43
2023-01-03T14:29:20.481Z,6.05
2023-01-03T14:31:50.239Z,6.29
2023-01-03T14:34:30.039Z,6.32
2023-01-03T14:37:06.066Z,6.27
2023-01-03T14:42:04.299Z,6.26
2023-01-03T14:44:32.962Z,6.13
2023-01-03T14:47:03.959Z,6.21
2023-01-03T14:49:41.483Z,6.14
2023-01-03T14:52:17.287Z,6.25
2023-01-03T14:54:47.659Z,6.19
2023-01-03T14:57:20.770Z,6.14
2023-01-03T14:59:49.599Z,5.91
2023-01-03T15:02:18.242Z,6.15
2023-01-03T15:04:53.397Z,6.19
2023-01-03T15:07:28.366Z,6.18
2023-01-03T15:10:04.313Z,6.13
2023-01-03T15:12:36.062Z,5.92
2023-01-03T15:15:20.222Z,6.14
2023-01-03T15:17:49.983Z,6.07
2023-01-03T15:20:22.177Z,6.03
2023-01-03T15:22:50.000Z,5.89
2023-01-03T15:25:20.269Z,6.09
2023-01-03T15:27:50.186Z,5.35
2023-01-03T15:30:24.749Z,5.99
2023-01-03T15:33:03.298Z,5.95
2023-01-03T15:35:37.818Z,5.99
2023-01-03T15:38:14.659Z,5.96
2023-01-03T15:40:44.939Z,5.92
2023-01-03T15:43:22.167Z,5.81
2023-01-03T15:46:10.796Z,5.93
2023-01-03T15:48:39.582Z,5.62
2023-01-03T15:51:08.728Z,5.95
2023-01-03T15:53:43.697Z,6.06
2023-01-03T15:56:18.061Z,5.96
2023-01-03T15:58:46.682Z,5.95
2023-01-03T16:01:14.791Z,5.90
2023-01-03T16:03:42.601Z,5.29
2023-01-03T16:06:11.713Z,4.96
2023-01-03T16:08:42.470Z,5.56
2023-01-03T16:11:19.269Z,5.86
2023-01-03T16:13:51.914Z,5.87
2023-01-03T16:16:23.758Z,5.89
2023-01-03T16:18:51.554Z,5.84
2023-01-03T16:21:20.836Z,5.69
2023-01-03T16:23:48.542Z,5.76
2023-01-03T16:26:17.231Z,5.84
2023-01-03T16:28:45.032Z,5.59
2023-01-03T16:31:15.820Z,5.73
2023-01-03T16:33:44.677Z,5.78
2023-01-03T16:36:26.788Z,5.75
2023-01-03T16:38:54.466Z,5.74
2023-01-03T16:41:22.131Z,5.56
2023-01-03T16:43:49.801Z,5.62
2023-01-03T16:46:21.939Z,5.61
2023-01-03T16:48:52.926Z,5.65
2023-01-03T16:51:24.343Z,5.62
2023-01-03T16:53:56.328Z,4.84
2023-01-03T16:56:24.701Z,4.79
2023-01-03T16:58:52.942Z,5.47
2023-01-03T17:01:20.813Z,5.36
2023-01-03T17:03:48.764Z,4.82
2023-01-03T17:06:25.171Z,4.94
2023-01-03T17:08:55.363Z,5.40
2023-01-03T17:11:23.590Z,5.35
2023-01-03T17:13:53.198Z,5.43
2023-01-03T17:16:22.950Z,5.45
2023-01-03T17:18:55.702Z,5.47
2023-01-03T17:21:25.518Z,5.22
2023-01-03T17:23:58.142Z,5.32
2023-01-03T17:26:26.961Z,5.31
2023-01-03T17:28:55.734Z,5.20
2023-01-03T17:31:25.585Z,5.13
2023-01-03T17:33:54.439Z,5.10
2023-01-03T17:36:25.740Z,5.07
2023-01-03T17:38:59.839Z,4.86
2023-01-03T17:41:27.681Z,4.91
2023-01-03T17:43:55.900Z,4.81
2023-01-03T17:46:44.132Z,4.71
2023-01-03T17:49:26.884Z,4.70
2023-01-03T17:51:57.175Z,4.60
2023-01-03T17:54:28.438Z,4.31
2023-01-03T17:56:58.018Z,4.44
2023-01-03T17:59:26.121Z,4.36
2023-01-03T18:01:55.174Z,4.21
2023-01-03T18:04:23.096Z,4.20
2023-01-03T18:06:57.079Z,4.16
2023-01-03T18:09:27.270Z,4.01
2023-01-03T18:11:55.560Z,4.07
2023-01-03T18:14:23.436Z,4.03
2023-01-03T18:16:55.068Z,3.80
2023-01-03T18:19:26.291Z,3.90
2023-01-03T18:21:54.655Z,3.85
2023-01-03T18:24:24.830Z,3.84
2023-01-03T18:26:55.904Z,3.72
2023-01-03T18:29:23.524Z,3.64
2023-01-03T18:31:51.789Z,3.71
2023-01-03T18:34:19.493Z,2.87
2023-01-03T18:36:50.500Z,3.65
2023-01-03T18:39:23.239Z,3.70
2023-01-03T18:41:50.882Z,3.68
2023-01-03T18:44:23.127Z,3.69
2023-01-03T18:46:51.724Z,3.71
2023-01-03T18:49:20.220Z,3.72
2023-01-03T18:51:50.496Z,3.63
2023-01-03T18:54:20.562Z,3.57
2023-01-03T18:56:48.266Z,3.95
2023-01-03T18:59:23.360Z,4.00
2023-01-03T19:01:51.208Z,4.01
2023-01-03T19:04:18.975Z,4.04
2023-01-03T19:06:49.395Z,4.06
2023-01-03T19:09:21.783Z,4.12
2023-01-03T19:11:50.129Z,3.53
2023-01-03T19:14:17.873Z,4.52
2023-01-03T19:16:46.822Z,4.62
2023-01-03T19:19:14.554Z,4.54
2023-01-03T19:21:45.407Z,4.50
2023-01-03T19:24:23.581Z,4.46
2023-01-03T19:26:53.826Z,4.51
2023-01-03T19:29:24.784Z,4.50
2023-01-03T19:31:58.158Z,3.86
2023-01-03T19:34:27.618Z,3.34
2023-01-03T19:36:57.077Z,3.13
2023-01-03T19:39:27.284Z,4.40
2023-01-03T19:42:16.053Z,4.41
2023-01-03T19:44:44.274Z,4.33
2023-01-03T19:47:15.959Z,4.11
2023-01-03T19:49:48.626Z,4.25
2023-01-03T19:52:17.033Z,4.11
2023-01-03T19:54:45.785Z,4.33
2023-01-03T19:57:22.406Z,2.93
2023-01-03T19:59:56.356Z,3.63
2023-01-03T20:02:39.300Z,3.35
2023-01-03T20:05:15.408Z,3.53
2023-01-03T20:07:43.327Z,4.01
2023-01-03T20:10:18.413Z,2.79
2023-01-03T20:12:47.595Z,3.88
2023-01-03T20:15:26.941Z,2.45
2023-01-03T20:17:56.655Z,3.26
2023-01-03T20:20:30.646Z,3.74
2023-01-03T20:23:05.091Z,2.48
2023-01-03T20:25:35.034Z,2.29
2023-01-03T20:28:03.202Z,3.45
2023-01-03T20:30:32.969Z,3.41
2023-01-03T20:33:02.234Z,2.37
2023-01-03T20:36:09.519Z,3.00
2023-01-03T20:38:27.547Z,2.41
2023-01-03T20:40:56.818Z,3.31
2023-01-03T20:43:25.206Z,3.12
2023-01-03T20:45:55.590Z,2.94
2023-01-03T20:48:26.695Z,1.76
2023-01-03T20:50:54.721Z,2.85
2023-01-03T20:53:25.173Z,3.00
2023-01-03T20:55:53.606Z,2.27
2023-01-03T20:58:24.950Z,2.73
2023-01-03T21:00:58.176Z,2.78
2023-01-03T21:03:33.854Z,1.73
2023-01-03T21:06:02.680Z,2.52
2023-01-03T21:08:48.962Z,2.44
2023-01-03T21:11:16.786Z,2.71
2023-01-03T21:13:44.560Z,1.95
2023-01-03T21:16:26.581Z,2.11
2023-01-03T21:18:55.775Z,2.59
2023-01-03T21:21:24.653Z,2.66
2023-01-03T21:23:54.152Z,2.68
2023-01-03T21:26:22.251Z,2.68
2023-01-03T21:28:52.036Z,2.62
2023-01-03T21:31:23.771Z,2.62
2023-01-03T21:33:52.047Z,2.44
2023-01-03T21:36:24.759Z,2.63
2023-01-03T21:38:52.734Z,2.56
2023-01-03T21:41:21.626Z,2.57
2023-01-03T21:43:49.249Z,2.52
2023-01-03T21:46:18.509Z,2.49
2023-01-03T21:48:46.660Z,2.35
2023-01-03T21:51:20.717Z,2.39
2023-01-03T21:53:56.870Z,2.30
2023-01-03T21:56:26.158Z,2.39
2023-01-03T21:58:53.749Z,2.37
2023-01-03T22:01:23.656Z,2.29
2023-01-03T22:04:09.763Z,2.44
2023-01-03T22:06:38.416Z,2.35
2023-01-03T22:09:27.399Z,2.27
2023-01-03T22:11:55.103Z,2.31
2023-01-03T22:14:31.454Z,2.25
2023-01-03T22:17:01.546Z,1.82
2023-01-03T22:19:29.244Z,2.29
2023-01-03T22:21:56.888Z,2.16
2023-01-03T22:24:33.245Z,1.70
2023-01-03T22:27:00.932Z,2.14
2023-01-03T22:29:28.592Z,2.11
2023-01-03T22:31:56.380Z,1.49
2023-01-03T22:34:27.159Z,1.89
2023-01-03T22:36:59.727Z,2.02
2023-01-03T22:39:28.799Z,2.03
2023-01-03T22:41:57.439Z,1.95
2023-01-03T22:44:26.839Z,2.01
2023-01-03T22:46:54.469Z,1.94
2023-01-03T22:49:22.155Z,1.89
2023-01-03T22:51:49.758Z,1.94
2023-01-03T22:54:17.523Z,1.83
2023-01-03T22:58:16.454Z,1.01
2023-01-03T23:00:38.354Z,1.22
2023-01-03T23:03:06.088Z,1.76
2023-01-03T23:05:36.460Z,1.63
2023-01-03T23:08:04.079Z,1.66
2023-01-03T23:10:31.683Z,1.51
2023-01-03T23:12:58.480Z,1.56
2023-01-03T23:15:27.677Z,1.42
2023-01-03T23:17:57.447Z,1.65
2023-01-03T23:20:27.525Z,1.58
2023-01-03T23:22:59.689Z,1.20
2023-01-03T23:25:27.822Z,1.34
2023-01-03T23:27:55.496Z,1.47
2023-01-03T23:30:31.903Z,1.44
2023-01-03T23:33:00.974Z,1.26
2023-01-03T23:35:28.645Z,1.22
2023-01-03T23:37:57.768Z,0.87
2023-01-03T23:40:25.456Z,0.82
2023-01-03T23:42:53.130Z,1.15
2023-01-03T23:45:20.860Z,1.26
2023-01-03T23:47:48.552Z,0.74
2023-01-03T23:50:17.614Z,0.88
2023-01-03T23:52:45.309Z,1.15
2023-01-03T23:55:13.228Z,1.06
2023-01-03T23:57:41.141Z,0.54
